Honaker, Virginia
Current Conditions -  °F | °C
As of 8:15 AM on Tuesday 21 Oct 2014 (Local Time) from KJFZ Reporting Station
Overcast Overcast  
Wind Chill: 53°   Ceiling: 1600
Heat Index: 53°   Visibility: 10mi
Dew Point: 50°   Wind: 5mph
Humidity: 89%   Direction: 230°SW
Pressure: 29.96"   Gusts: NA
Location:  37.02°N, 81.97°W
Report Text: KJFZ 211215Z AUTO 23004KT 10SM SCT007 BKN016 OVC020 12/10 A2996 RMK AO2 T01160098
Loading
Personal Weather Stations






























Interactive Weather Map
Tropical Storm Tracking
New forecast layout! Learn more

10-Day Weather Forecast

Advertisements
Track Severe Weather on mobile